Time;durP1;ratioP1;P1;durP2;ratioP2;P2;SDS_P1;SDS_P2;PMS_P1;PMS_P2;Temp;Humidity;BMP_temperature;BMP_pressure;BME280_temperature;BME280_humidity;BME280_pressure;Samples;Min_cycle;Max_cycle;Signal;HPM_P1;HPM_P2
2023/12/10 00:01:21;;;;;;;225.70;21.85;;;;;;;0.60;83.25;98822.78;4516233;31;33328;-88
2023/12/10 00:03:49;;;;;;;459.67;66.75;;;;;;;1.15;82.07;98811.66;4515898;31;33618;-86
2023/12/10 00:06:17;;;;;;;161.68;20.62;;;;;;;0.60;84.48;98814.25;4515459;31;34139;-86
2023/12/10 00:08:44;;;;;;;595.58;80.85;;;;;;;0.16;85.78;98819.03;4514934;31;34692;-86
2023/12/10 00:11:12;;;;;;;268.67;25.15;;;;;;;0.23;86.12;98817.66;4515648;31;33581;-86
2023/12/10 00:13:39;;;;;;;730.22;111.85;;;;;;;0.27;87.26;98806.81;4500240;31;35237;-86
2023/12/10 00:16:09;;;;;;;543.78;84.35;;;;;;;0.15;87.03;98802.00;4499627;31;33857;-86
2023/12/10 00:18:37;;;;;;;169.32;22.67;;;;;;;0.58;85.42;98803.13;4502522;31;33579;-86
2023/12/10 00:21:05;;;;;;;172.37;20.15;;;;;;;0.30;86.63;98801.81;4515522;31;33125;-86
2023/12/10 00:23:32;;;;;;;98.40;17.90;;;;;;;0.53;85.61;98791.81;4515378;31;34562;-86
2023/12/10 00:26:00;;;;;;;378.17;64.20;;;;;;;1.08;83.28;98797.75;4515375;31;33820;-87
2023/12/10 00:28:27;;;;;;;198.23;20.70;;;;;;;0.81;83.78;98791.41;4513041;31;33820;-86
2023/12/10 00:30:55;;;;;;;523.15;72.32;;;;;;;1.14;82.79;98792.06;4499597;31;32407;-92
2023/12/10 00:33:22;;;;;;;157.15;19.20;;;;;;;0.55;84.74;98798.75;4499447;31;33516;-86
2023/12/10 00:35:50;;;;;;;504.12;78.28;;;;;;;0.44;85.42;98808.44;4499767;31;33859;-85
2023/12/10 00:38:18;;;;;;;162.55;18.27;;;;;;;0.74;84.61;98805.56;4500053;31;34756;-86
2023/12/10 00:40:48;;;;;;;224.95;22.42;;;;;;;0.67;84.61;98793.34;4515415;31;34025;-86
2023/12/10 00:43:16;;;;;;;616.65;86.50;;;;;;;0.46;85.21;98791.56;4515185;31;33894;-87
2023/12/10 00:45:44;;;;;;;337.08;60.08;;;;;;;0.29;85.73;98795.00;4515179;31;34905;-85
2023/12/10 00:48:12;;;;;;;391.88;66.85;;;;;;;0.94;83.89;98784.34;4500383;31;34006;-88
2023/12/10 00:50:40;;;;;;;304.77;60.97;;;;;;;0.96;83.34;98787.88;4499247;31;33806;-86
2023/12/10 00:53:07;;;;;;;52.70;17.30;;;;;;;1.22;82.17;98785.59;4499048;31;33765;-86
2023/12/10 00:55:35;;;;;;;164.77;18.67;;;;;;;1.68;81.44;98782.44;4499276;31;33882;-85
2023/12/10 00:58:02;;;;;;;436.98;63.92;;;;;;;1.17;82.49;98776.84;4499192;31;33636;-85
2023/12/10 01:00:30;;;;;;;549.15;70.07;;;;;;;0.90;83.16;98774.81;4499263;31;34279;-85
2023/12/10 01:02:58;;;;;;;228.00;19.95;;;;;;;0.13;86.76;98772.13;4515170;31;33842;-85
2023/12/10 01:05:25;;;;;;;337.17;63.10;;;;;;;0.55;85.23;98767.28;4514869;31;34165;-85
2023/12/10 01:07:53;;;;;;;536.65;72.32;;;;;;;0.82;84.03;98763.41;4515062;31;33098;-85
2023/12/10 01:10:21;;;;;;;186.35;19.42;;;;;;;1.25;82.70;98769.50;4500858;31;33565;-88
2023/12/10 01:12:48;;;;;;;515.20;76.75;;;;;;;1.15;82.45;98769.13;4499201;31;33832;-85
2023/12/10 01:15:16;;;;;;;231.25;22.77;;;;;;;0.28;86.56;98765.19;4499025;31;34612;-85
2023/12/10 01:17:44;;;;;;;117.07;20.62;;;;;;;0.87;84.21;98772.16;4498673;31;34000;-85
2023/12/10 01:20:12;;;;;;;368.42;65.40;;;;;;;1.38;81.90;98765.00;4511535;31;32721;-85
2023/12/10 01:22:40;;;;;;;102.30;17.12;;;;;;;1.13;82.77;98763.06;4514408;31;33630;-85
2023/12/10 01:25:08;;;;;;;63.58;19.00;;;;;;;1.23;81.72;98766.91;4514756;31;34161;-86
2023/12/10 01:27:35;;;;;;;595.03;78.40;;;;;;;1.34;82.12;98763.12;4514996;31;33558;-84
2023/12/10 01:30:03;;;;;;;448.77;74.25;;;;;;;0.94;82.40;98765.63;4503038;31;33012;-86
2023/12/10 01:32:31;;;;;;;176.15;22.92;;;;;;;1.38;81.47;98744.56;4498988;31;33587;-90
2023/12/10 01:34:59;;;;;;;414.90;68.85;;;;;;;1.46;81.76;98745.75;4499443;31;33646;-86
2023/12/10 01:37:27;;;;;;;53.87;16.42;;;;;;;1.16;82.23;98749.56;4498990;31;34955;-86
2023/12/10 01:39:55;;;;;;;451.65;71.37;;;;;;;1.48;81.34;98747.50;4508917;31;33504;-89
2023/12/10 01:42:23;;;;;;;313.00;60.85;;;;;;;0.70;83.42;98745.00;4515011;31;33735;-86
2023/12/10 01:44:50;;;;;;;150.85;21.52;;;;;;;0.82;84.21;98739.56;4514838;31;33991;-86
2023/12/10 01:47:18;;;;;;;86.65;19.20;;;;;;;1.25;83.06;98731.22;4505240;31;33805;-87
2023/12/10 01:49:46;;;;;;;433.42;65.25;;;;;;;1.38;81.85;98725.81;4498495;31;33299;-87
2023/12/10 01:52:14;;;;;;;421.45;67.50;;;;;;;0.50;84.74;98738.16;4498609;31;34309;-87
2023/12/10 01:54:41;;;;;;;166.50;20.60;;;;;;;0.65;84.85;98729.50;4498686;31;34131;-87
2023/12/10 01:57:10;;;;;;;108.12;17.98;;;;;;;0.85;84.08;98715.06;4506351;31;32937;-87
2023/12/10 01:59:37;;;;;;;80.15;16.48;;;;;;;0.48;85.48;98705.78;4500293;31;34238;-86
2023/12/10 02:02:05;;;;;;;214.85;55.72;;;;;;;0.65;84.60;98718.44;4500697;31;34326;-86
2023/12/10 02:04:33;;;;;;;88.68;15.23;;;;;;;1.21;82.43;98707.22;4500692;31;33750;-88
2023/12/10 02:07:01;;;;;;;327.67;60.50;;;;;;;1.15;83.04;98707.84;4507877;31;33909;-87
2023/12/10 02:09:28;;;;;;;126.60;18.02;;;;;;;1.33;81.73;98705.22;4499101;31;33431;-86
2023/12/10 02:11:56;;;;;;;68.57;15.18;;;;;;;1.35;81.50;98684.81;4499163;31;34334;-87
2023/12/10 02:14:24;;;;;;;144.52;43.92;;;;;;;1.31;81.91;98706.81;4498829;31;35083;-86
2023/12/10 02:16:51;;;;;;;51.37;12.00;;;;;;;1.14;82.43;98707.81;4504262;31;33884;-87
2023/12/10 02:19:19;;;;;;;41.95;13.02;;;;;;;1.00;83.23;98697.00;4513355;31;33719;-87
2023/12/10 02:21:48;;;;;;;43.80;13.77;;;;;;;0.97;82.74;98695.16;4514609;31;33475;-87
2023/12/10 02:24:22;;;;;;;145.73;42.47;;;;;;;0.68;84.00;98687.94;4499984;31;34611;-86
2023/12/10 02:26:50;;;;;;;39.65;14.10;;;;;;;0.61;84.44;98685.94;4508601;31;34046;-85
2023/12/10 02:29:18;;;;;;;28.15;12.75;;;;;;;0.74;84.36;98683.09;4483459;31;34477;-86
2023/12/10 02:31:45;;;;;;;138.90;41.60;;;;;;;0.70;84.54;98671.03;4498003;31;33500;-85
2023/12/10 02:34:13;;;;;;;31.00;12.63;;;;;;;0.48;84.59;98667.53;4498481;31;35039;-86
2023/12/10 02:36:40;;;;;;;86.72;39.35;;;;;;;0.92;83.47;98654.97;4499264;31;33707;-86
2023/12/10 02:39:10;;;;;;;32.08;11.90;;;;;;;1.08;82.48;98643.72;4498329;31;33758;-85
2023/12/10 02:41:38;;;;;;;29.23;13.02;;;;;;;0.89;82.85;98630.19;4498435;31;34185;-86
2023/12/10 02:44:06;;;;;;;28.15;11.82;;;;;;;0.75;83.64;98613.41;4498470;31;34089;-86
2023/12/10 02:46:33;;;;;;;32.90;12.40;;;;;;;0.51;84.09;98613.25;4512180;31;33790;-85
2023/12/10 02:49:01;;;;;;;46.63;14.63;;;;;;;0.97;83.32;98616.03;4514270;31;33570;-87
2023/12/10 02:51:28;;;;;;;41.92;14.27;;;;;;;0.90;83.25;98608.06;4514034;31;34952;-85
2023/12/10 02:53:56;;;;;;;39.25;15.20;;;;;;;0.35;86.18;98604.06;4514132;31;34904;-85
2023/12/10 02:56:23;;;;;;;68.95;14.93;;;;;;;0.96;83.07;98603.22;4498298;31;33332;-85
2023/12/10 02:58:51;;;;;;;37.70;15.02;;;;;;;1.30;81.86;98587.59;4514207;31;34068;-85
2023/12/10 03:01:18;;;;;;;42.50;14.25;;;;;;;1.51;80.79;98604.56;4514136;31;34541;-87
2023/12/10 03:03:46;;;;;;;351.80;54.05;;;;;;;1.50;80.83;98605.41;4513859;31;34907;-86
2023/12/10 03:06:14;;;;;;;135.23;45.67;;;;;;;0.85;83.56;98620.66;4514025;31;33743;-85
2023/12/10 03:08:41;;;;;;;233.52;50.20;;;;;;;1.17;81.80;98608.34;4500285;31;32989;-87
2023/12/10 03:11:09;;;;;;;52.88;15.02;;;;;;;0.77;83.43;98603.28;4497819;31;33767;-85
2023/12/10 03:13:36;;;;;;;62.70;15.25;;;;;;;0.68;84.43;98601.19;4497767;31;35420;-86
2023/12/10 03:16:04;;;;;;;46.28;15.20;;;;;;;0.44;84.82;98601.88;4507688;31;33844;-86
2023/12/10 03:18:33;;;;;;;77.20;16.30;;;;;;;0.94;83.75;98605.72;4513697;31;34546;-86
2023/12/10 03:21:00;;;;;;;290.50;56.03;;;;;;;0.80;84.07;98599.19;4513490;31;34777;-87
2023/12/10 03:23:28;;;;;;;59.75;16.25;;;;;;;0.73;83.83;98594.62;4513481;31;34978;-86
2023/12/10 03:25:55;;;;;;;55.72;12.70;;;;;;;0.65;85.34;98606.19;4513613;31;33957;-86
2023/12/10 03:28:23;;;;;;;309.23;54.72;;;;;;;0.67;84.68;98609.66;4491462;31;34382;-86
2023/12/10 03:30:50;;;;;;;276.02;50.85;;;;;;;1.04;83.52;98613.75;4497739;31;33556;-87
2023/12/10 03:33:18;;;;;;;44.45;16.45;;;;;;;0.84;84.37;98612.94;4497887;31;33456;-87
2023/12/10 03:35:46;;;;;;;129.32;45.55;;;;;;;1.41;82.32;98622.09;4498048;31;33861;-88
2023/12/10 03:38:14;;;;;;;269.55;57.45;;;;;;;1.42;81.40;98626.41;4485340;31;33565;-86
2023/12/10 03:40:41;;;;;;;87.68;18.40;;;;;;;1.40;82.22;98637.34;4513436;31;34238;-87
2023/12/10 03:43:09;;;;;;;126.07;15.63;;;;;;;1.57;81.00;98632.94;4516379;31;33397;-86
2023/12/10 03:45:36;;;;;;;91.18;17.80;;;;;;;1.24;82.36;98625.66;4515946;31;33753;-86
2023/12/10 03:48:04;;;;;;;85.28;17.15;;;;;;;1.12;83.11;98627.72;4515313;31;33386;-85
2023/12/10 03:50:32;;;;;;;105.20;18.33;;;;;;;1.30;82.65;98623.34;4499676;31;34200;-86
2023/12/10 03:52:59;;;;;;;483.30;70.95;;;;;;;0.66;84.37;98635.97;4499668;31;34006;-86
2023/12/10 03:55:27;;;;;;;75.20;17.17;;;;;;;0.53;85.61;98636.25;4499722;31;33628;-86
2023/12/10 03:57:54;;;;;;;51.45;16.80;;;;;;;1.07;83.54;98626.66;4499915;31;33294;-86
2023/12/10 04:00:22;;;;;;;90.65;14.93;;;;;;;1.02;83.38;98615.38;4499654;31;33782;-86
2023/12/10 04:02:50;;;;;;;120.15;15.80;;;;;;;1.04;84.10;98606.97;4499567;31;33578;-85
2023/12/10 04:05:17;;;;;;;110.70;16.30;;;;;;;0.61;84.94;98609.41;4515441;31;33780;-86
2023/12/10 04:07:48;;;;;;;385.45;62.28;;;;;;;0.95;83.99;98611.72;4515604;31;33666;-86
2023/12/10 04:10:15;;;;;;;50.42;17.52;;;;;;;0.59;85.63;98621.22;4501453;31;33849;-86
2023/12/10 04:12:43;;;;;;;209.23;48.25;;;;;;;1.02;84.25;98607.72;4515596;31;35023;-85
2023/12/10 04:15:10;;;;;;;117.50;41.97;;;;;;;1.14;83.56;98610.78;4515220;31;34678;-86
2023/12/10 04:17:38;;;;;;;44.70;13.25;;;;;;;1.40;82.08;98614.37;4514872;31;33569;-85
2023/12/10 04:20:06;;;;;;;127.03;41.40;;;;;;;1.44;81.51;98609.47;4499525;31;33589;-85
2023/12/10 04:22:34;;;;;;;34.53;13.38;;;;;;;1.23;82.02;98600.94;4502912;31;34097;-87
2023/12/10 04:25:02;;;;;;;143.05;48.00;;;;;;;1.02;83.07;98600.06;4515668;31;34610;-87
2023/12/10 04:27:29;;;;;;;185.37;54.58;;;;;;;0.85;83.55;98610.44;4501044;31;33251;-86
2023/12/10 04:29:57;;;;;;;199.65;52.50;;;;;;;0.05;86.94;98607.78;4499720;31;33694;-87
2023/12/10 04:32:25;;;;;;;40.38;14.02;;;;;;;0.39;86.24;98600.81;4499735;31;34927;-86
2023/12/10 04:34:52;;;;;;;46.78;14.87;;;;;;;0.72;84.81;98600.53;4485251;31;33828;-87
2023/12/10 04:37:20;;;;;;;98.68;43.60;;;;;;;0.56;85.83;98609.19;4499544;31;33569;-87
2023/12/10 04:39:47;;;;;;;43.33;15.88;;;;;;;0.82;83.74;98595.00;4499934;31;33665;-86
2023/12/10 04:42:15;;;;;;;99.07;42.33;;;;;;;1.35;82.07;98605.66;4499750;31;35034;-86
2023/12/10 04:44:42;;;;;;;26.10;11.25;;;;;;;1.29;81.90;98607.94;4514970;31;34311;-86
2023/12/10 04:47:11;;;;;;;40.63;12.70;;;;;;;1.17;81.41;98613.44;4515476;31;34124;-85
2023/12/10 04:49:38;;;;;;;38.10;15.02;;;;;;;0.94;82.60;98613.37;4514255;31;34218;-86
2023/12/10 04:52:06;;;;;;;64.03;33.63;;;;;;;1.16;81.34;98607.47;4515281;31;34151;-86
2023/12/10 04:54:34;;;;;;;31.20;10.90;;;;;;;0.64;83.45;98617.16;4514618;31;34195;-85
2023/12/10 04:57:01;;;;;;;70.82;34.22;;;;;;;1.17;81.57;98619.41;4500827;31;33184;-85
2023/12/10 04:59:29;;;;;;;69.25;35.75;;;;;;;1.33;80.72;98620.94;4501905;31;34707;-86
2023/12/10 05:01:56;;;;;;;63.53;33.40;;;;;;;0.88;81.86;98631.00;4515302;31;34086;-85
2023/12/10 05:04:24;;;;;;;66.80;35.55;;;;;;;1.10;80.94;98627.66;4515107;31;34019;-85
2023/12/10 05:06:51;;;;;;;66.70;34.92;;;;;;;1.36;80.22;98626.12;4515069;31;34302;-85
2023/12/10 05:09:19;;;;;;;73.28;38.28;;;;;;;1.22;80.99;98617.06;4515068;31;34550;-85
2023/12/10 05:11:46;;;;;;;61.90;33.05;;;;;;;1.25;81.55;98617.19;4515194;31;34107;-85
2023/12/10 05:14:14;;;;;;;60.95;32.53;;;;;;;1.00;81.59;98609.34;4514395;31;33988;-85
2023/12/10 05:16:41;;;;;;;35.42;13.02;;;;;;;1.30;80.27;98604.63;4515172;31;33968;-86
2023/12/10 05:19:09;;;;;;;65.20;34.90;;;;;;;1.46;79.84;98596.75;4514999;31;33274;-86
2023/12/10 05:21:37;;;;;;;32.47;12.27;;;;;;;1.38;79.78;98599.00;4514697;31;35020;-87
2023/12/10 05:24:06;;;;;;;30.73;14.23;;;;;;;1.16;80.45;98591.28;4515094;31;33764;-85
2023/12/10 05:26:33;;;;;;;23.15;10.68;;;;;;;1.03;81.17;98600.13;4515178;31;33048;-85
2023/12/10 05:29:01;;;;;;;58.15;32.72;;;;;;;0.87;81.72;98601.19;4487484;31;34582;-85
2023/12/10 05:31:28;;;;;;;55.55;32.97;;;;;;;1.27;80.19;98600.25;4498917;31;34510;-86
2023/12/10 05:33:56;;;;;;;30.50;11.93;;;;;;;1.19;80.62;98596.50;4499074;31;34584;-86
2023/12/10 05:36:23;;;;;;;57.67;32.00;;;;;;;1.02;82.04;98612.81;4499014;31;33556;-85
2023/12/10 05:38:51;;;;;;;55.50;32.28;;;;;;;1.01;81.20;98618.72;4510197;31;33883;-86
2023/12/10 05:41:19;;;;;;;63.15;33.22;;;;;;;1.28;80.26;98607.09;4500807;31;34918;-86
2023/12/10 05:43:46;;;;;;;33.28;12.52;;;;;;;1.15;80.65;98615.06;4514970;31;34125;-87
2023/12/10 05:46:14;;;;;;;57.88;30.67;;;;;;;1.26;80.01;98615.50;4514764;31;33284;-86
2023/12/10 05:48:41;;;;;;;55.60;30.98;;;;;;;1.01;81.25;98613.63;4514976;31;33600;-86
2023/12/10 05:51:09;;;;;;;25.12;10.50;;;;;;;0.88;82.18;98615.69;4514683;31;34613;-87
2023/12/10 05:53:37;;;;;;;55.75;30.77;;;;;;;1.43;80.12;98610.25;4499540;31;33375;-86
2023/12/10 05:56:05;;;;;;;48.55;29.75;;;;;;;1.26;80.01;98607.84;4499196;31;32992;-86
2023/12/10 05:58:32;;;;;;;48.45;28.83;;;;;;;1.59;79.07;98603.19;4498914;31;34007;-87
2023/12/10 06:01:00;;;;;;;49.38;28.98;;;;;;;1.88;78.05;98611.97;4484518;31;33355;-87
2023/12/10 06:03:28;;;;;;;20.15;8.70;;;;;;;1.92;77.65;98618.94;4513771;31;34169;-87
2023/12/10 06:05:56;;;;;;;26.90;11.55;;;;;;;2.25;76.78;98621.91;4514794;31;33649;-86
2023/12/10 06:08:23;;;;;;;41.78;24.95;;;;;;;2.29;76.38;98610.97;4514946;31;33483;-87
2023/12/10 06:10:51;;;;;;;23.30;11.43;;;;;;;1.53;78.66;98611.50;4514657;31;33800;-86
2023/12/10 06:13:18;;;;;;;40.60;24.95;;;;;;;2.26;76.59;98605.72;4500356;31;34714;-85
2023/12/10 06:15:46;;;;;;;21.77;9.23;;;;;;;1.84;77.48;98611.00;4498583;31;33073;-85
2023/12/10 06:18:14;;;;;;;42.00;25.33;;;;;;;1.65;78.37;98611.09;4498650;31;34577;-85
2023/12/10 06:20:41;;;;;;;30.23;11.23;;;;;;;1.52;78.20;98606.34;4498660;31;33614;-85
2023/12/10 06:23:09;;;;;;;42.92;24.75;;;;;;;1.90;77.26;98611.25;4498631;31;33776;-86
2023/12/10 06:25:37;;;;;;;50.53;28.67;;;;;;;1.94;77.18;98623.31;4498497;31;34392;-85
2023/12/10 06:28:04;;;;;;;24.90;9.63;;;;;;;1.29;78.98;98618.16;4511604;31;33511;-84
2023/12/10 06:30:32;;;;;;;26.73;10.52;;;;;;;1.32;79.37;98619.16;4499693;31;33839;-85
2023/12/10 06:33:00;;;;;;;27.83;10.50;;;;;;;1.29;80.12;98619.06;4514287;31;34061;-86
2023/12/10 06:35:27;;;;;;;26.15;10.35;;;;;;;0.97;81.37;98631.34;4514217;31;33277;-86
2023/12/10 06:37:55;;;;;;;52.30;28.80;;;;;;;1.46;79.71;98628.25;4502054;31;34672;-86
2023/12/10 06:40:22;;;;;;;30.80;12.13;;;;;;;1.19;80.73;98642.47;4498370;31;34169;-85
2023/12/10 06:42:50;;;;;;;50.92;29.73;;;;;;;1.59;79.40;98638.97;4498272;31;33560;-85
2023/12/10 06:45:19;;;;;;;29.37;11.05;;;;;;;1.24;79.75;98635.00;4498000;31;33426;-85
2023/12/10 06:47:47;;;;;;;49.35;29.05;;;;;;;1.80;78.26;98642.34;4498440;31;33859;-86
2023/12/10 06:50:15;;;;;;;46.72;28.75;;;;;;;1.85;77.81;98651.06;4497855;31;34618;-84
2023/12/10 06:52:43;;;;;;;27.10;12.02;;;;;;;1.70;78.33;98658.13;4498103;31;34318;-87
2023/12/10 06:55:10;;;;;;;28.45;12.10;;;;;;;1.35;79.23;98656.72;4498337;31;33379;-87
2023/12/10 06:57:38;;;;;;;47.25;30.10;;;;;;;1.75;78.34;98674.53;4498252;31;34573;-87
2023/12/10 07:00:06;;;;;;;26.58;12.37;;;;;;;1.98;77.12;98669.47;4512486;31;34502;-87
2023/12/10 07:02:34;;;;;;;55.45;34.38;;;;;;;1.87;77.29;98674.16;4513620;31;34418;-87
2023/12/10 07:05:01;;;;;;;28.20;13.77;;;;;;;1.78;77.84;98663.53;4514031;31;33120;-87
2023/12/10 07:07:29;;;;;;;43.78;29.30;;;;;;;1.62;77.28;98664.63;4514004;31;33500;-87
2023/12/10 07:09:57;;;;;;;25.27;13.30;;;;;;;2.06;77.01;98662.94;4500808;31;33907;-87
2023/12/10 07:12:24;;;;;;;26.65;12.63;;;;;;;2.02;76.61;98669.63;4498489;31;33183;-89
2023/12/10 07:14:52;;;;;;;44.63;28.42;;;;;;;2.01;76.65;98667.91;4497925;31;33020;-87
2023/12/10 07:17:19;;;;;;;21.17;10.35;;;;;;;2.09;76.55;98675.84;4499509;31;33304;-86
2023/12/10 07:19:47;;;;;;;21.85;10.82;;;;;;;2.01;76.76;98677.22;4510308;31;34902;-86
2023/12/10 07:22:14;;;;;;;22.33;12.43;;;;;;;1.45;77.96;98672.50;4501182;31;33824;-86
2023/12/10 07:24:42;;;;;;;23.42;10.82;;;;;;;1.98;77.01;98680.56;4515920;31;33360;-86
2023/12/10 07:27:09;;;;;;;36.92;25.67;;;;;;;2.27;76.14;98680.78;4516055;31;33520;-86
2023/12/10 07:29:37;;;;;;;24.83;11.43;;;;;;;1.85;77.42;98686.84;4499968;31;33291;-87
2023/12/10 07:32:05;;;;;;;25.85;13.95;;;;;;;1.75;77.11;98682.22;4514646;31;34090;-86
2023/12/10 07:34:32;;;;;;;37.40;25.80;;;;;;;2.03;76.82;98690.94;4515355;31;33057;-86
2023/12/10 07:37:00;;;;;;;24.83;12.18;;;;;;;1.95;76.78;98688.97;4515675;31;33825;-86
2023/12/10 07:39:28;;;;;;;28.58;12.77;;;;;;;2.25;75.73;98685.84;4515628;31;34625;-86
2023/12/10 07:41:56;;;;;;;53.10;33.53;;;;;;;1.97;76.36;98685.59;4515763;31;33192;-85
2023/12/10 07:44:23;;;;;;;34.75;15.30;;;;;;;2.12;75.74;98681.97;4506433;31;34232;-86
2023/12/10 07:46:51;;;;;;;27.60;12.18;;;;;;;2.76;74.15;98686.00;4499603;31;34654;-86
2023/12/10 07:49:18;;;;;;;23.95;10.88;;;;;;;2.37;75.82;98690.53;4499736;31;33847;-86
2023/12/10 07:51:46;;;;;;;49.10;22.83;;;;;;;2.46;74.55;98696.00;4499668;31;33927;-86
2023/12/10 07:54:14;;;;;;;47.53;32.45;;;;;;;2.37;75.52;98696.53;4506957;31;33250;-86
2023/12/10 07:56:41;;;;;;;47.60;20.52;;;;;;;2.32;75.21;98687.81;4515282;31;33529;-89
2023/12/10 07:59:09;;;;;;;36.95;16.12;;;;;;;2.30;75.33;98686.88;4500774;31;34090;-87
2023/12/10 08:01:36;;;;;;;50.80;35.35;;;;;;;2.40;75.40;98694.09;4499701;31;33412;-88
2023/12/10 08:04:04;;;;;;;30.95;13.57;;;;;;;2.29;75.24;98703.03;4505316;31;33226;-87
2023/12/10 08:06:32;;;;;;;20.67;10.57;;;;;;;2.73;74.44;98697.81;4515304;31;34732;-85
2023/12/10 08:09:04;;;;;;;34.33;25.77;;;;;;;2.97;73.67;98702.94;4514445;31;34004;-85
2023/12/10 08:11:31;;;;;;;26.10;12.05;;;;;;;2.77;73.91;98705.69;4515174;31;33731;-89
2023/12/10 08:13:59;;;;;;;42.83;32.10;;;;;;;3.29;72.55;98694.66;4515527;31;33600;-85
2023/12/10 08:16:26;;;;;;;42.33;29.98;;;;;;;2.98;72.85;98702.12;4515459;31;33604;-85
2023/12/10 08:18:54;;;;;;;46.22;34.83;;;;;;;2.62;73.84;98711.13;4501122;31;33777;-92
2023/12/10 08:21:21;;;;;;;38.75;28.55;;;;;;;2.53;75.05;98721.00;4515689;31;34438;-89
2023/12/10 08:23:50;;;;;;;40.70;17.92;;;;;;;2.31;75.27;98714.22;4510107;31;33397;-86
2023/12/10 08:26:18;;;;;;;45.05;33.05;;;;;;;2.56;74.80;98710.00;4499341;31;34702;-85
2023/12/10 08:28:46;;;;;;;28.40;14.43;;;;;;;2.77;73.90;98721.03;4508274;31;34626;-89
2023/12/10 08:31:13;;;;;;;37.33;27.37;;;;;;;3.04;73.66;98722.84;4514661;31;33541;-85
2023/12/10 08:33:44;;;;;;;23.83;12.18;;;;;;;2.54;74.39;98730.44;4500881;31;34219;-84
2023/12/10 08:36:12;;;;;;;46.13;35.17;;;;;;;2.84;73.55;98725.56;4515019;31;34011;-85
2023/12/10 08:38:40;;;;;;;25.40;13.20;;;;;;;2.87;73.53;98723.09;4515167;31;34033;-85
2023/12/10 08:41:08;;;;;;;38.70;16.00;;;;;;;3.17;72.88;98719.87;4508130;31;33930;-86
2023/12/10 08:43:37;;;;;;;35.45;17.65;;;;;;;2.67;74.20;98732.62;4499064;31;33724;-86
2023/12/10 08:46:04;;;;;;;46.37;35.17;;;;;;;2.90;73.68;98728.31;4499107;31;34566;-88
2023/12/10 08:48:32;;;;;;;34.40;16.50;;;;;;;3.10;72.97;98733.28;4499483;31;34011;-86
2023/12/10 08:51:00;;;;;;;50.35;36.40;;;;;;;3.58;71.86;98735.78;4484425;31;34571;-87
2023/12/10 08:53:27;;;;;;;35.15;16.87;;;;;;;3.25;72.32;98738.94;4499188;31;33413;-87
2023/12/10 08:55:55;;;;;;;47.88;34.78;;;;;;;3.37;72.18;98747.06;4505038;31;33425;-91
2023/12/10 08:58:22;;;;;;;32.55;15.20;;;;;;;3.63;71.63;98749.63;4514892;31;34915;-88
2023/12/10 09:00:50;;;;;;;28.02;13.18;;;;;;;3.61;71.99;98756.41;4514428;31;34215;-87
2023/12/10 09:03:18;;;;;;;27.27;14.55;;;;;;;3.49;71.48;98753.44;4500041;31;33449;-87
2023/12/10 09:05:45;;;;;;;43.10;33.25;;;;;;;3.96;70.58;98761.81;4514552;31;33793;-88
2023/12/10 09:08:13;;;;;;;42.25;31.62;;;;;;;3.67;70.85;98766.84;4508888;31;34009;-87
2023/12/10 09:10:41;;;;;;;26.45;13.40;;;;;;;3.74;70.82;98765.38;4499252;31;33589;-86
2023/12/10 09:13:08;;;;;;;30.10;14.35;;;;;;;4.39;69.43;98770.06;4498430;31;33743;-86
2023/12/10 09:15:36;;;;;;;42.28;29.42;;;;;;;4.13;69.19;98765.81;4499445;31;33702;-91
2023/12/10 09:18:03;;;;;;;29.10;14.15;;;;;;;3.78;69.54;98770.62;4499291;31;34607;-87
2023/12/10 09:20:31;;;;;;;42.83;30.55;;;;;;;3.91;69.76;98759.09;4499854;31;33859;-86
2023/12/10 09:22:59;;;;;;;44.83;32.05;;;;;;;3.59;70.66;98766.59;4499628;31;32777;-87
2023/12/10 09:25:26;;;;;;;39.83;29.17;;;;;;;3.93;69.92;98762.56;4498949;31;33663;-87
2023/12/10 09:27:54;;;;;;;26.58;13.40;;;;;;;4.09;69.75;98759.72;4499465;31;33486;-86
2023/12/10 09:30:21;;;;;;;52.60;38.70;;;;;;;4.44;69.15;98766.75;4499171;31;34172;-86
2023/12/10 09:32:49;;;;;;;30.42;14.87;;;;;;;4.29;69.26;98770.59;4499143;31;33146;-87
2023/12/10 09:35:17;;;;;;;35.95;25.37;;;;;;;4.51;68.85;98776.34;4499041;31;33697;-87
2023/12/10 09:37:44;;;;;;;35.30;26.27;;;;;;;4.44;68.96;98770.19;4484991;31;33335;-86
2023/12/10 09:40:12;;;;;;;34.53;23.55;;;;;;;4.70;68.33;98764.94;4498649;31;34391;-87
2023/12/10 09:42:39;;;;;;;30.52;23.83;;;;;;;3.76;69.59;98769.72;4484549;31;33240;-86
2023/12/10 09:45:07;;;;;;;21.45;11.52;;;;;;;4.47;68.07;98770.28;4499187;31;34734;-87
2023/12/10 09:47:35;;;;;;;34.90;24.92;;;;;;;4.93;66.93;98773.34;4499086;31;33860;-86
2023/12/10 09:50:03;;;;;;;32.95;24.35;;;;;;;4.78;67.03;98772.06;4498786;31;34066;-86
2023/12/10 09:52:31;;;;;;;32.85;24.73;;;;;;;4.97;66.75;98765.75;4498827;31;33471;-88
2023/12/10 09:54:59;;;;;;;23.08;10.90;;;;;;;4.67;66.71;98770.00;4484980;31;33509;-87
2023/12/10 09:57:29;;;;;;;32.03;24.52;;;;;;;4.77;66.59;98770.34;4498947;31;33556;-88
2023/12/10 09:59:57;;;;;;;26.98;12.10;;;;;;;4.75;66.74;98774.53;4498219;31;33990;-92
2023/12/10 10:02:31;;;;;;;31.27;23.62;;;;;;;5.27;65.92;98775.16;4484830;31;34228;-86
2023/12/10 10:05:00;;;;;;;36.38;30.00;;;;;;;4.59;66.45;98788.63;4499235;31;33718;-86
2023/12/10 10:07:31;;;;;;;32.25;23.92;;;;;;;4.43;67.06;98780.38;4497463;31;34854;-87
2023/12/10 10:09:58;;;;;;;33.10;25.05;;;;;;;4.41;66.80;98779.50;4498783;31;34486;-92
2023/12/10 10:12:30;;;;;;;31.02;23.48;;;;;;;4.67;66.54;98776.00;4498732;31;34274;-85
2023/12/10 10:14:59;;;;;;;25.88;13.25;;;;;;;4.80;66.09;98772.09;4484718;31;34601;-90
2023/12/10 10:17:32;;;;;;;32.53;26.77;;;;;;;5.02;65.43;98769.31;4497300;31;34952;-86
2023/12/10 10:20:00;;;;;;;31.90;24.70;;;;;;;4.61;66.19;98765.56;4484731;31;33534;-90
2023/12/10 10:22:28;;;;;;;33.83;24.58;;;;;;;4.88;65.70;98768.91;4502674;31;33797;-88
2023/12/10 10:24:56;;;;;;;38.55;26.45;;;;;;;4.68;66.41;98772.63;4505567;31;33028;-88
2023/12/10 10:27:23;;;;;;;39.33;27.10;;;;;;;4.62;66.42;98767.28;4486787;31;33783;-86
2023/12/10 10:29:54;;;;;;;39.35;28.40;;;;;;;4.59;66.34;98769.78;4514195;31;34498;-85
2023/12/10 10:32:22;;;;;;;35.70;26.77;;;;;;;4.79;66.09;98773.81;4499860;31;33423;-86
2023/12/10 10:34:51;;;;;;;37.03;26.37;;;;;;;4.80;65.99;98774.66;4492243;31;34534;-86
2023/12/10 10:37:19;;;;;;;36.72;27.87;;;;;;;4.92;66.16;98779.28;4508288;31;33788;-92
2023/12/10 10:39:50;;;;;;;36.45;24.85;;;;;;;4.94;65.89;98785.34;4511323;31;34835;-85
2023/12/10 10:42:18;;;;;;;35.70;25.48;;;;;;;4.68;66.26;98792.28;4496252;31;34225;-89
2023/12/10 10:44:46;;;;;;;38.60;28.42;;;;;;;4.65;66.60;98793.06;4490474;31;32767;-90
2023/12/10 10:47:18;;;;;;;35.72;26.05;;;;;;;4.37;67.92;98787.09;4511785;31;35138;-85
2023/12/10 10:49:51;;;;;;;33.13;25.83;;;;;;;4.58;67.36;98788.56;4510101;31;33409;-86
2023/12/10 10:52:40;;;;;;;42.00;30.52;;;;;;;4.65;67.14;98790.50;4496903;31;34423;-86
2023/12/10 10:55:08;;;;;;;33.78;25.23;;;;;;;4.72;67.17;98795.00;4460413;31;33756;-85
2023/12/10 10:57:36;;;;;;;33.63;24.12;;;;;;;4.75;66.84;98787.38;4486497;31;34072;-85
2023/12/10 11:00:16;;;;;;;36.83;26.40;;;;;;;4.36;67.94;98793.06;4496903;31;33878;-85
2023/12/10 11:02:53;;;;;;;37.47;26.55;;;;;;;3.94;69.71;98797.69;4495395;31;33062;-85
2023/12/10 11:05:21;;;;;;;31.73;13.82;;;;;;;4.25;68.51;98784.16;4487530;31;34253;-87
2023/12/10 11:07:50;;;;;;;32.70;25.67;;;;;;;4.36;68.42;98782.78;4496147;31;33928;-87
2023/12/10 11:10:17;;;;;;;22.40;11.07;;;;;;;4.51;68.23;98789.19;4509888;31;33919;-90
2023/12/10 11:12:45;;;;;;;32.60;24.30;;;;;;;4.69;67.21;98788.87;4504110;31;33125;-86
2023/12/10 11:15:13;;;;;;;35.75;25.20;;;;;;;4.32;68.20;98788.66;4509345;31;33518;-87
2023/12/10 11:17:50;;;;;;;31.25;23.40;;;;;;;4.34;68.48;98794.69;4511589;31;34823;-87
2023/12/10 11:20:43;;;;;;;36.00;23.25;;;;;;;4.42;68.77;98784.66;4515316;31;33896;-85
2023/12/10 11:23:13;;;;;;;25.52;12.18;;;;;;;4.47;68.99;98797.63;4484296;31;33839;-87
2023/12/10 11:25:41;;;;;;;28.70;23.33;;;;;;;4.93;67.53;98802.47;4500106;31;33727;-86
2023/12/10 11:28:14;;;;;;;31.08;22.92;;;;;;;4.45;68.59;98805.28;4494062;31;35032;-88